Terminal Aerodrome Forecast
Issued by NWS

Home | Current Version | Previous Version | Text Only | Print | Product List | Glossary On
Versions: 1 2 3 4 5 6 7 8 9 10 11 12 13 14 15 16 17 18
000
FTUS45 KABQ 300500
TAFFMN
TAF
KFMN 300534Z 3006/0106 04004KT P6SM SKC
     FM301000 07005KT P6SM SKC
     FM301800 28010G17KT P6SM FEW120
     FM010100 VRB04KT P6SM SKC=

USA.gov is the U.S. government's official web portal to all federal, state and local government web resources and services.